sensor_id;sensor_type;location;lat;lon;timestamp;temperature;humidity
5850;DHT22;2951;47.712;9.400;2023-05-01T00:01:51;12.90;99.90
5850;DHT22;2951;47.712;9.400;2023-05-01T00:04:17;13.00;99.90
5850;DHT22;2951;47.712;9.400;2023-05-01T00:06:44;13.00;99.90
5850;DHT22;2951;47.712;9.400;2023-05-01T00:09:11;13.00;99.90
5850;DHT22;2951;47.712;9.400;2023-05-01T00:11:38;13.00;99.90
5850;DHT22;2951;47.712;9.400;2023-05-01T00:14:05;13.00;99.90
5850;DHT22;2951;47.712;9.400;2023-05-01T00:16:31;13.00;99.90
5850;DHT22;2951;47.712;9.400;2023-05-01T00:18:58;13.00;99.90
5850;DHT22;2951;47.712;9.400;2023-05-01T00:21:25;13.00;99.90
5850;DHT22;2951;47.712;9.400;2023-05-01T00:23:53;13.00;99.90
5850;DHT22;2951;47.712;9.400;2023-05-01T00:26:21;13.00;99.90
5850;DHT22;2951;47.712;9.400;2023-05-01T00:28:47;13.00;99.90
5850;DHT22;2951;47.712;9.400;2023-05-01T00:31:14;13.00;99.90
5850;DHT22;2951;47.712;9.400;2023-05-01T00:33:41;12.90;99.90
5850;DHT22;2951;47.712;9.400;2023-05-01T00:36:08;13.00;99.90
5850;DHT22;2951;47.712;9.400;2023-05-01T00:38:35;12.90;99.90
5850;DHT22;2951;47.712;9.400;2023-05-01T00:41:01;12.90;99.90
5850;DHT22;2951;47.712;9.400;2023-05-01T00:43:29;12.90;99.90
5850;DHT22;2951;47.712;9.400;2023-05-01T00:45:55;12.80;99.90
5850;DHT22;2951;47.712;9.400;2023-05-01T00:48:22;12.80;99.90
5850;DHT22;2951;47.712;9.400;2023-05-01T00:50:49;12.90;99.90
5850;DHT22;2951;47.712;9.400;2023-05-01T00:53:16;12.90;99.90
5850;DHT22;2951;47.712;9.400;2023-05-01T00:55:43;12.90;99.90
5850;DHT22;2951;47.712;9.400;2023-05-01T00:58:10;12.90;99.90
5850;DHT22;2951;47.712;9.400;2023-05-01T01:00:37;12.90;99.90
5850;DHT22;2951;47.712;9.400;2023-05-01T01:03:04;12.90;99.90
5850;DHT22;2951;47.712;9.400;2023-05-01T01:05:31;12.90;99.90
5850;DHT22;2951;47.712;9.400;2023-05-01T01:08:23;12.90;99.90
5850;DHT22;2951;47.712;9.400;2023-05-01T01:10:53;13.00;99.90
5850;DHT22;2951;47.712;9.400;2023-05-01T01:13:28;12.90;99.90
5850;DHT22;2951;47.712;9.400;2023-05-01T01:16:08;12.70;99.90
5850;DHT22;2951;47.712;9.400;2023-05-01T01:18:40;12.60;99.90
5850;DHT22;2951;47.712;9.400;2023-05-01T01:21:17;12.50;99.90
5850;DHT22;2951;47.712;9.400;2023-05-01T01:29:27;12.30;99.90
5850;DHT22;2951;47.712;9.400;2023-05-01T01:34:32;12.20;99.90
5850;DHT22;2951;47.712;9.400;2023-05-01T01:39:48;12.10;99.90
5850;DHT22;2951;47.712;9.400;2023-05-01T01:42:18;12.10;99.90
5850;DHT22;2951;47.712;9.400;2023-05-01T01:44:56;12.10;99.90
5850;DHT22;2951;47.712;9.400;2023-05-01T01:47:25;12.10;99.90
5850;DHT22;2951;47.712;9.400;2023-05-01T01:49:53;12.10;99.90
5850;DHT22;2951;47.712;9.400;2023-05-01T01:52:21;12.10;99.90
5850;DHT22;2951;47.712;9.400;2023-05-01T01:54:50;12.10;99.90
5850;DHT22;2951;47.712;9.400;2023-05-01T01:57:18;12.10;99.90
5850;DHT22;2951;47.712;9.400;2023-05-01T01:59:46;12.10;99.90
5850;DHT22;2951;47.712;9.400;2023-05-01T02:02:17;12.20;99.90
5850;DHT22;2951;47.712;9.400;2023-05-01T02:04:44;12.10;99.90
5850;DHT22;2951;47.712;9.400;2023-05-01T02:07:11;12.20;99.90
5850;DHT22;2951;47.712;9.400;2023-05-01T02:09:40;12.10;99.90
5850;DHT22;2951;47.712;9.400;2023-05-01T02:12:07;12.20;99.90
5850;DHT22;2951;47.712;9.400;2023-05-01T02:14:36;12.20;99.90
5850;DHT22;2951;47.712;9.400;2023-05-01T02:17:03;12.10;99.90
5850;DHT22;2951;47.712;9.400;2023-05-01T02:19:30;12.20;99.90
5850;DHT22;2951;47.712;9.400;2023-05-01T02:21:57;12.20;99.90
5850;DHT22;2951;47.712;9.400;2023-05-01T02:24:24;12.20;99.90
5850;DHT22;2951;47.712;9.400;2023-05-01T02:26:55;12.10;99.90
5850;DHT22;2951;47.712;9.400;2023-05-01T02:29:23;12.10;99.90
5850;DHT22;2951;47.712;9.400;2023-05-01T02:31:51;12.10;99.90
5850;DHT22;2951;47.712;9.400;2023-05-01T02:34:17;12.00;99.90
5850;DHT22;2951;47.712;9.400;2023-05-01T02:36:44;11.90;99.90
5850;DHT22;2951;47.712;9.400;2023-05-01T02:39:11;11.90;99.90
5850;DHT22;2951;47.712;9.400;2023-05-01T02:41:37;11.90;99.90
5850;DHT22;2951;47.712;9.400;2023-05-01T02:44:05;11.80;99.90
5850;DHT22;2951;47.712;9.400;2023-05-01T02:46:35;11.80;99.90
5850;DHT22;2951;47.712;9.400;2023-05-01T02:49:02;11.80;99.90
5850;DHT22;2951;47.712;9.400;2023-05-01T02:51:29;11.70;99.90
5850;DHT22;2951;47.712;9.400;2023-05-01T02:53:59;11.60;99.90
5850;DHT22;2951;47.712;9.400;2023-05-01T02:56:25;11.60;99.90
5850;DHT22;2951;47.712;9.400;2023-05-01T02:58:53;11.60;99.90
5850;DHT22;2951;47.712;9.400;2023-05-01T03:01:20;11.50;99.90
5850;DHT22;2951;47.712;9.400;2023-05-01T03:03:47;11.50;99.90
5850;DHT22;2951;47.712;9.400;2023-05-01T03:06:14;11.60;99.90
5850;DHT22;2951;47.712;9.400;2023-05-01T03:08:40;11.50;99.90
5850;DHT22;2951;47.712;9.400;2023-05-01T03:11:07;11.60;99.90
5850;DHT22;2951;47.712;9.400;2023-05-01T03:13:34;11.60;99.90
5850;DHT22;2951;47.712;9.400;2023-05-01T03:16:01;11.70;99.90
5850;DHT22;2951;47.712;9.400;2023-05-01T03:18:27;11.60;99.90
5850;DHT22;2951;47.712;9.400;2023-05-01T03:20:54;11.60;99.90
5850;DHT22;2951;47.712;9.400;2023-05-01T03:23:24;11.50;99.90
5850;DHT22;2951;47.712;9.400;2023-05-01T03:25:50;11.50;99.90
5850;DHT22;2951;47.712;9.400;2023-05-01T03:28:17;11.50;99.90
5850;DHT22;2951;47.712;9.400;2023-05-01T03:30:44;11.40;99.90
5850;DHT22;2951;47.712;9.400;2023-05-01T03:33:11;11.40;99.90
5850;DHT22;2951;47.712;9.400;2023-05-01T03:35:37;11.30;99.90
5850;DHT22;2951;47.712;9.400;2023-05-01T03:38:04;11.30;99.90
5850;DHT22;2951;47.712;9.400;2023-05-01T03:40:31;11.30;99.90
5850;DHT22;2951;47.712;9.400;2023-05-01T03:42:59;11.30;99.90
5850;DHT22;2951;47.712;9.400;2023-05-01T03:45:26;11.20;99.90
5850;DHT22;2951;47.712;9.400;2023-05-01T03:47:53;11.20;99.90
5850;DHT22;2951;47.712;9.400;2023-05-01T03:50:20;11.20;99.90
5850;DHT22;2951;47.712;9.400;2023-05-01T03:52:47;11.20;99.90
5850;DHT22;2951;47.712;9.400;2023-05-01T03:55:13;11.20;99.90
5850;DHT22;2951;47.712;9.400;2023-05-01T03:57:40;11.20;99.90
5850;DHT22;2951;47.712;9.400;2023-05-01T04:00:07;11.20;99.90
5850;DHT22;2951;47.712;9.400;2023-05-01T04:02:35;11.20;99.90
5850;DHT22;2951;47.712;9.400;2023-05-01T04:05:01;11.20;99.90
5850;DHT22;2951;47.712;9.400;2023-05-01T04:07:28;11.20;99.90
5850;DHT22;2951;47.712;9.400;2023-05-01T04:09:55;11.20;99.90
5850;DHT22;2951;47.712;9.400;2023-05-01T04:12:22;11.20;99.90
5850;DHT22;2951;47.712;9.400;2023-05-01T04:14:48;11.10;99.90
5850;DHT22;2951;47.712;9.400;2023-05-01T04:17:15;11.10;99.90
5850;DHT22;2951;47.712;9.400;2023-05-01T04:19:42;11.20;99.90
5850;DHT22;2951;47.712;9.400;2023-05-01T04:22:08;11.10;99.90
5850;DHT22;2951;47.712;9.400;2023-05-01T04:24:35;11.10;99.90
5850;DHT22;2951;47.712;9.400;2023-05-01T04:27:02;11.10;99.90
5850;DHT22;2951;47.712;9.400;2023-05-01T04:29:30;11.10;99.90
5850;DHT22;2951;47.712;9.400;2023-05-01T04:31:56;11.10;99.90
5850;DHT22;2951;47.712;9.400;2023-05-01T04:34:23;11.10;99.90
5850;DHT22;2951;47.712;9.400;2023-05-01T04:36:54;11.10;99.90
5850;DHT22;2951;47.712;9.400;2023-05-01T04:39:22;11.10;99.90
5850;DHT22;2951;47.712;9.400;2023-05-01T04:41:49;11.10;99.90
5850;DHT22;2951;47.712;9.400;2023-05-01T04:44:16;11.10;99.90
5850;DHT22;2951;47.712;9.400;2023-05-01T04:46:42;11.00;99.90
5850;DHT22;2951;47.712;9.400;2023-05-01T04:49:09;10.80;99.90
5850;DHT22;2951;47.712;9.400;2023-05-01T04:51:36;11.00;99.90
5850;DHT22;2951;47.712;9.400;2023-05-01T04:54:03;11.00;99.90
5850;DHT22;2951;47.712;9.400;2023-05-01T04:56:30;11.10;99.90
5850;DHT22;2951;47.712;9.400;2023-05-01T04:58:57;11.10;99.90
5850;DHT22;2951;47.712;9.400;2023-05-01T05:01:24;11.10;99.90
5850;DHT22;2951;47.712;9.400;2023-05-01T05:03:50;11.10;99.90
5850;DHT22;2951;47.712;9.400;2023-05-01T05:06:17;11.10;99.90
5850;DHT22;2951;47.712;9.400;2023-05-01T05:08:44;11.00;99.90
5850;DHT22;2951;47.712;9.400;2023-05-01T05:11:11;11.10;99.90
5850;DHT22;2951;47.712;9.400;2023-05-01T05:13:38;11.00;99.90
5850;DHT22;2951;47.712;9.400;2023-05-01T05:16:04;11.10;99.90
5850;DHT22;2951;47.712;9.400;2023-05-01T05:18:31;11.20;99.90
5850;DHT22;2951;47.712;9.400;2023-05-01T05:21:01;11.20;99.90
5850;DHT22;2951;47.712;9.400;2023-05-01T05:23:28;11.20;99.90
5850;DHT22;2951;47.712;9.400;2023-05-01T05:25:54;11.30;99.90
5850;DHT22;2951;47.712;9.400;2023-05-01T05:28:21;11.20;99.90
5850;DHT22;2951;47.712;9.400;2023-05-01T05:30:49;11.20;99.90
5850;DHT22;2951;47.712;9.400;2023-05-01T05:33:16;11.10;99.90
5850;DHT22;2951;47.712;9.400;2023-05-01T05:35:43;11.10;99.90
5850;DHT22;2951;47.712;9.400;2023-05-01T05:38:10;11.10;99.90
5850;DHT22;2951;47.712;9.400;2023-05-01T05:40:36;11.10;99.90
5850;DHT22;2951;47.712;9.400;2023-05-01T05:43:03;11.20;99.90
5850;DHT22;2951;47.712;9.400;2023-05-01T05:45:33;11.10;99.90
5850;DHT22;2951;47.712;9.400;2023-05-01T05:48:00;11.20;99.90
5850;DHT22;2951;47.712;9.400;2023-05-01T05:50:26;11.10;99.90
5850;DHT22;2951;47.712;9.400;2023-05-01T05:52:53;11.10;99.90
5850;DHT22;2951;47.712;9.400;2023-05-01T05:55:20;11.10;99.90
5850;DHT22;2951;47.712;9.400;2023-05-01T05:57:47;11.20;99.90
5850;DHT22;2951;47.712;9.400;2023-05-01T06:00:13;11.20;99.90
5850;DHT22;2951;47.712;9.400;2023-05-01T06:02:40;11.20;99.90
5850;DHT22;2951;47.712;9.400;2023-05-01T06:05:07;11.30;99.90
5850;DHT22;2951;47.712;9.400;2023-05-01T06:07:36;11.30;99.90
5850;DHT22;2951;47.712;9.400;2023-05-01T06:10:02;11.40;99.90
5850;DHT22;2951;47.712;9.400;2023-05-01T06:12:30;11.50;99.90
5850;DHT22;2951;47.712;9.400;2023-05-01T06:14:57;11.50;99.90
5850;DHT22;2951;47.712;9.400;2023-05-01T06:17:24;11.50;99.90
5850;DHT22;2951;47.712;9.400;2023-05-01T06:19:51;11.60;99.90
5850;DHT22;2951;47.712;9.400;2023-05-01T06:22:18;11.60;99.90
5850;DHT22;2951;47.712;9.400;2023-05-01T06:24:45;11.60;99.90
5850;DHT22;2951;47.712;9.400;2023-05-01T06:27:12;11.60;99.90
5850;DHT22;2951;47.712;9.400;2023-05-01T06:29:39;11.50;99.90
5850;DHT22;2951;47.712;9.400;2023-05-01T06:32:05;11.50;99.90
5850;DHT22;2951;47.712;9.400;2023-05-01T06:34:33;11.60;99.90
5850;DHT22;2951;47.712;9.400;2023-05-01T06:36:59;11.50;99.90
5850;DHT22;2951;47.712;9.400;2023-05-01T06:39:26;11.60;99.90
5850;DHT22;2951;47.712;9.400;2023-05-01T06:41:53;11.50;99.90
5850;DHT22;2951;47.712;9.400;2023-05-01T06:44:19;11.40;99.90
5850;DHT22;2951;47.712;9.400;2023-05-01T06:46:46;11.50;99.90
5850;DHT22;2951;47.712;9.400;2023-05-01T06:49:13;11.50;99.90
5850;DHT22;2951;47.712;9.400;2023-05-01T06:51:39;11.50;99.90
5850;DHT22;2951;47.712;9.400;2023-05-01T06:54:06;11.50;99.90
5850;DHT22;2951;47.712;9.400;2023-05-01T06:56:33;11.50;99.90
5850;DHT22;2951;47.712;9.400;2023-05-01T06:59:00;11.60;99.90
5850;DHT22;2951;47.712;9.400;2023-05-01T07:01:27;11.50;99.90
5850;DHT22;2951;47.712;9.400;2023-05-01T07:03:54;11.70;99.90
5850;DHT22;2951;47.712;9.400;2023-05-01T07:06:21;11.50;99.90
5850;DHT22;2951;47.712;9.400;2023-05-01T07:08:48;11.60;99.90
5850;DHT22;2951;47.712;9.400;2023-05-01T07:11:14;11.60;99.90
5850;DHT22;2951;47.712;9.400;2023-05-01T07:13:41;11.60;99.90
5850;DHT22;2951;47.712;9.400;2023-05-01T07:16:08;11.60;99.90
5850;DHT22;2951;47.712;9.400;2023-05-01T07:18:34;11.60;99.90
5850;DHT22;2951;47.712;9.400;2023-05-01T07:21:02;11.60;99.90
5850;DHT22;2951;47.712;9.400;2023-05-01T07:23:29;11.50;99.90
5850;DHT22;2951;47.712;9.400;2023-05-01T07:25:55;11.60;99.90
5850;DHT22;2951;47.712;9.400;2023-05-01T07:28:23;11.50;99.90
5850;DHT22;2951;47.712;9.400;2023-05-01T07:30:49;11.50;99.90
5850;DHT22;2951;47.712;9.400;2023-05-01T07:33:16;11.50;99.90
5850;DHT22;2951;47.712;9.400;2023-05-01T07:35:43;11.60;99.90
5850;DHT22;2951;47.712;9.400;2023-05-01T07:38:10;11.70;99.90
5850;DHT22;2951;47.712;9.400;2023-05-01T07:40:37;11.70;99.90
5850;DHT22;2951;47.712;9.400;2023-05-01T07:43:04;11.80;99.90
5850;DHT22;2951;47.712;9.400;2023-05-01T07:45:30;11.80;99.90
5850;DHT22;2951;47.712;9.400;2023-05-01T07:47:57;11.50;99.90
5850;DHT22;2951;47.712;9.400;2023-05-01T07:50:25;11.50;99.90
5850;DHT22;2951;47.712;9.400;2023-05-01T07:52:51;11.60;99.90
5850;DHT22;2951;47.712;9.400;2023-05-01T07:55:20;11.80;99.90
5850;DHT22;2951;47.712;9.400;2023-05-01T07:57:47;11.80;99.90
5850;DHT22;2951;47.712;9.400;2023-05-01T08:00:14;12.00;99.90
5850;DHT22;2951;47.712;9.400;2023-05-01T08:02:41;11.90;99.90
5850;DHT22;2951;47.712;9.400;2023-05-01T08:05:08;12.00;99.90
5850;DHT22;2951;47.712;9.400;2023-05-01T08:07:35;12.10;99.90
5850;DHT22;2951;47.712;9.400;2023-05-01T08:10:02;12.20;99.90
5850;DHT22;2951;47.712;9.400;2023-05-01T08:12:29;12.40;99.90
5850;DHT22;2951;47.712;9.400;2023-05-01T08:14:56;12.40;99.90
5850;DHT22;2951;47.712;9.400;2023-05-01T08:17:23;12.10;99.90
5850;DHT22;2951;47.712;9.400;2023-05-01T08:19:50;12.20;99.90
5850;DHT22;2951;47.712;9.400;2023-05-01T08:22:19;12.20;99.90
5850;DHT22;2951;47.712;9.400;2023-05-01T08:24:45;12.20;99.90
5850;DHT22;2951;47.712;9.400;2023-05-01T08:27:12;12.40;99.90
5850;DHT22;2951;47.712;9.400;2023-05-01T08:29:39;12.50;99.90
5850;DHT22;2951;47.712;9.400;2023-05-01T08:32:05;12.50;99.90
5850;DHT22;2951;47.712;9.400;2023-05-01T08:34:32;12.60;99.90
5850;DHT22;2951;47.712;9.400;2023-05-01T08:36:59;12.80;99.90
5850;DHT22;2951;47.712;9.400;2023-05-01T08:39:25;12.70;99.90
5850;DHT22;2951;47.712;9.400;2023-05-01T08:41:52;12.80;99.90
5850;DHT22;2951;47.712;9.400;2023-05-01T08:44:19;12.80;99.90
5850;DHT22;2951;47.712;9.400;2023-05-01T08:46:47;12.70;99.90
5850;DHT22;2951;47.712;9.400;2023-05-01T08:49:16;12.70;99.90
5850;DHT22;2951;47.712;9.400;2023-05-01T08:51:44;12.80;99.90
5850;DHT22;2951;47.712;9.400;2023-05-01T08:54:12;12.80;99.90
5850;DHT22;2951;47.712;9.400;2023-05-01T08:56:40;13.00;99.90
5850;DHT22;2951;47.712;9.400;2023-05-01T08:59:08;13.10;99.90
5850;DHT22;2951;47.712;9.400;2023-05-01T09:01:35;13.10;99.90
5850;DHT22;2951;47.712;9.400;2023-05-01T09:04:03;13.20;99.90
5850;DHT22;2951;47.712;9.400;2023-05-01T09:06:31;13.10;99.90
5850;DHT22;2951;47.712;9.400;2023-05-01T09:08:58;13.20;99.90
5850;DHT22;2951;47.712;9.400;2023-05-01T09:11:25;13.10;99.90
5850;DHT22;2951;47.712;9.400;2023-05-01T09:13:51;13.30;99.90
5850;DHT22;2951;47.712;9.400;2023-05-01T09:16:18;13.40;99.90
5850;DHT22;2951;47.712;9.400;2023-05-01T09:18:46;13.20;99.90
5850;DHT22;2951;47.712;9.400;2023-05-01T09:21:13;13.30;99.90
5850;DHT22;2951;47.712;9.400;2023-05-01T09:23:39;13.40;99.90
5850;DHT22;2951;47.712;9.400;2023-05-01T09:26:06;13.40;99.90
5850;DHT22;2951;47.712;9.400;2023-05-01T09:31:20;13.50;99.90
5850;DHT22;2951;47.712;9.400;2023-05-01T09:33:52;13.50;99.90
5850;DHT22;2951;47.712;9.400;2023-05-01T09:36:19;13.50;99.90
5850;DHT22;2951;47.712;9.400;2023-05-01T09:38:47;13.60;99.90
5850;DHT22;2951;47.712;9.400;2023-05-01T09:41:13;13.90;99.90
5850;DHT22;2951;47.712;9.400;2023-05-01T09:43:40;14.10;99.90
5850;DHT22;2951;47.712;9.400;2023-05-01T09:46:10;14.20;99.90
5850;DHT22;2951;47.712;9.400;2023-05-01T09:48:38;14.30;99.90
5850;DHT22;2951;47.712;9.400;2023-05-01T09:51:24;14.30;99.90
5850;DHT22;2951;47.712;9.400;2023-05-01T09:53:56;14.10;99.90
5850;DHT22;2951;47.712;9.400;2023-05-01T09:56:24;13.70;99.90
5850;DHT22;2951;47.712;9.400;2023-05-01T09:58:52;13.50;99.90
5850;DHT22;2951;47.712;9.400;2023-05-01T10:04:05;13.60;99.90
5850;DHT22;2951;47.712;9.400;2023-05-01T10:06:32;13.70;99.90
5850;DHT22;2951;47.712;9.400;2023-05-01T10:08:59;13.70;99.90
5850;DHT22;2951;47.712;9.400;2023-05-01T10:11:25;13.60;99.90
5850;DHT22;2951;47.712;9.400;2023-05-01T10:14:08;13.60;99.90
5850;DHT22;2951;47.712;9.400;2023-05-01T10:16:36;13.60;99.90
5850;DHT22;2951;47.712;9.400;2023-05-01T10:19:03;13.80;99.90
5850;DHT22;2951;47.712;9.400;2023-05-01T10:21:30;14.00;99.90
5850;DHT22;2951;47.712;9.400;2023-05-01T10:23:59;14.00;99.90
5850;DHT22;2951;47.712;9.400;2023-05-01T10:26:26;14.20;99.90
5850;DHT22;2951;47.712;9.400;2023-05-01T10:28:53;14.20;99.90
5850;DHT22;2951;47.712;9.400;2023-05-01T10:31:20;14.20;99.90
5850;DHT22;2951;47.712;9.400;2023-05-01T10:33:47;14.20;99.90
5850;DHT22;2951;47.712;9.400;2023-05-01T10:36:18;14.20;99.90
5850;DHT22;2951;47.712;9.400;2023-05-01T10:38:46;14.20;99.90
5850;DHT22;2951;47.712;9.400;2023-05-01T10:41:14;13.80;99.90
5850;DHT22;2951;47.712;9.400;2023-05-01T10:43:42;13.80;99.90
5850;DHT22;2951;47.712;9.400;2023-05-01T10:53:37;13.90;99.90
5850;DHT22;2951;47.712;9.400;2023-05-01T10:56:04;13.70;99.90
5850;DHT22;2951;47.712;9.400;2023-05-01T11:04:06;14.30;99.90
5850;DHT22;2951;47.712;9.400;2023-05-01T11:12:10;14.40;99.90
5850;DHT22;2951;47.712;9.400;2023-05-01T11:20:05;14.70;99.90
5850;DHT22;2951;47.712;9.400;2023-05-01T11:22:32;14.80;99.90
5850;DHT22;2951;47.712;9.400;2023-05-01T11:24:59;14.80;99.90
5850;DHT22;2951;47.712;9.400;2023-05-01T11:27:26;14.60;99.90
5850;DHT22;2951;47.712;9.400;2023-05-01T11:29:53;14.60;99.90
5850;DHT22;2951;47.712;9.400;2023-05-01T11:32:22;14.60;99.90
5850;DHT22;2951;47.712;9.400;2023-05-01T11:34:49;14.80;99.90
5850;DHT22;2951;47.712;9.400;2023-05-01T11:37:17;14.90;99.90
5850;DHT22;2951;47.712;9.400;2023-05-01T11:39:48;15.00;99.90
5850;DHT22;2951;47.712;9.400;2023-05-01T11:42:15;14.90;99.90
5850;DHT22;2951;47.712;9.400;2023-05-01T11:44:41;15.10;99.90
5850;DHT22;2951;47.712;9.400;2023-05-01T11:47:08;15.40;99.90
5850;DHT22;2951;47.712;9.400;2023-05-01T11:49:35;15.10;99.90
5850;DHT22;2951;47.712;9.400;2023-05-01T11:52:02;15.10;99.90
5850;DHT22;2951;47.712;9.400;2023-05-01T11:54:29;15.00;99.90
5850;DHT22;2951;47.712;9.400;2023-05-01T11:56:59;15.20;99.90
5850;DHT22;2951;47.712;9.400;2023-05-01T11:59:26;15.20;99.90
5850;DHT22;2951;47.712;9.400;2023-05-01T12:01:53;15.10;99.90
5850;DHT22;2951;47.712;9.400;2023-05-01T12:04:24;15.00;99.90
5850;DHT22;2951;47.712;9.400;2023-05-01T12:06:54;14.90;99.90
5850;DHT22;2951;47.712;9.400;2023-05-01T12:09:21;14.80;99.90
5850;DHT22;2951;47.712;9.400;2023-05-01T12:11:48;14.70;99.90
5850;DHT22;2951;47.712;9.400;2023-05-01T12:14:18;14.50;99.90
5850;DHT22;2951;47.712;9.400;2023-05-01T12:16:45;14.50;99.90
5850;DHT22;2951;47.712;9.400;2023-05-01T12:19:13;13.80;99.90
5850;DHT22;2951;47.712;9.400;2023-05-01T12:21:40;13.70;99.90
5850;DHT22;2951;47.712;9.400;2023-05-01T12:26:34;13.70;99.90
5850;DHT22;2951;47.712;9.400;2023-05-01T12:29:02;13.70;99.90
5850;DHT22;2951;47.712;9.400;2023-05-01T12:31:29;13.80;99.90
5850;DHT22;2951;47.712;9.400;2023-05-01T12:36:26;14.30;99.90
5850;DHT22;2951;47.712;9.400;2023-05-01T12:38:54;14.60;99.90
5850;DHT22;2951;47.712;9.400;2023-05-01T12:41:30;14.80;99.90
5850;DHT22;2951;47.712;9.400;2023-05-01T12:43:57;14.80;99.90
5850;DHT22;2951;47.712;9.400;2023-05-01T12:46:25;14.90;99.90
5850;DHT22;2951;47.712;9.400;2023-05-01T12:48:52;15.20;99.90
5850;DHT22;2951;47.712;9.400;2023-05-01T12:51:20;15.30;99.90
5850;DHT22;2951;47.712;9.400;2023-05-01T12:53:46;15.40;99.90
5850;DHT22;2951;47.712;9.400;2023-05-01T12:56:20;15.40;99.90
5850;DHT22;2951;47.712;9.400;2023-05-01T12:58:51;15.30;99.90
5850;DHT22;2951;47.712;9.400;2023-05-01T13:01:25;15.00;99.90
5850;DHT22;2951;47.712;9.400;2023-05-01T13:03:53;15.10;99.90
5850;DHT22;2951;47.712;9.400;2023-05-01T13:06:29;15.00;99.90
5850;DHT22;2951;47.712;9.400;2023-05-01T13:09:05;14.90;99.90
5850;DHT22;2951;47.712;9.400;2023-05-01T13:11:32;14.90;99.90
5850;DHT22;2951;47.712;9.400;2023-05-01T13:14:05;15.10;99.90
5850;DHT22;2951;47.712;9.400;2023-05-01T13:16:32;15.40;99.90
5850;DHT22;2951;47.712;9.400;2023-05-01T13:18:58;15.50;99.90
5850;DHT22;2951;47.712;9.400;2023-05-01T13:21:25;15.70;99.90
5850;DHT22;2951;47.712;9.400;2023-05-01T13:23:56;15.50;99.90
5850;DHT22;2951;47.712;9.400;2023-05-01T13:26:30;15.50;99.90
5850;DHT22;2951;47.712;9.400;2023-05-01T13:28:58;15.50;99.90
5850;DHT22;2951;47.712;9.400;2023-05-01T13:31:25;15.30;99.90
5850;DHT22;2951;47.712;9.400;2023-05-01T13:33:53;15.30;99.90
5850;DHT22;2951;47.712;9.400;2023-05-01T13:36:20;15.10;99.90
5850;DHT22;2951;47.712;9.400;2023-05-01T13:38:52;15.10;99.90
5850;DHT22;2951;47.712;9.400;2023-05-01T13:41:20;14.90;99.90
5850;DHT22;2951;47.712;9.400;2023-05-01T13:43:47;14.80;99.90
5850;DHT22;2951;47.712;9.400;2023-05-01T13:46:14;14.70;99.90
5850;DHT22;2951;47.712;9.400;2023-05-01T13:48:42;14.50;99.90
5850;DHT22;2951;47.712;9.400;2023-05-01T13:51:10;14.30;99.90
5850;DHT22;2951;47.712;9.400;2023-05-01T13:53:37;14.20;99.90
5850;DHT22;2951;47.712;9.400;2023-05-01T13:56:04;14.10;99.90
5850;DHT22;2951;47.712;9.400;2023-05-01T13:58:34;13.90;99.90
5850;DHT22;2951;47.712;9.400;2023-05-01T14:01:01;14.10;99.90
5850;DHT22;2951;47.712;9.400;2023-05-01T14:03:30;13.90;99.90
5850;DHT22;2951;47.712;9.400;2023-05-01T14:05:58;13.80;99.90
5850;DHT22;2951;47.712;9.400;2023-05-01T14:08:28;13.70;99.90
5850;DHT22;2951;47.712;9.400;2023-05-01T14:10:56;13.50;99.90
5850;DHT22;2951;47.712;9.400;2023-05-01T14:13:23;13.50;99.90
5850;DHT22;2951;47.712;9.400;2023-05-01T14:15:52;13.40;99.90
5850;DHT22;2951;47.712;9.400;2023-05-01T14:18:18;13.40;99.90
5850;DHT22;2951;47.712;9.400;2023-05-01T14:20:46;13.30;99.90
5850;DHT22;2951;47.712;9.400;2023-05-01T14:23:14;13.40;99.90
5850;DHT22;2951;47.712;9.400;2023-05-01T14:25:43;13.40;99.90
5850;DHT22;2951;47.712;9.400;2023-05-01T14:28:10;13.30;99.90
5850;DHT22;2951;47.712;9.400;2023-05-01T14:30:38;13.30;99.90
5850;DHT22;2951;47.712;9.400;2023-05-01T14:33:05;13.20;99.90
5850;DHT22;2951;47.712;9.400;2023-05-01T14:35:33;13.20;99.90
5850;DHT22;2951;47.712;9.400;2023-05-01T14:38:06;13.20;99.90
5850;DHT22;2951;47.712;9.400;2023-05-01T14:40:34;13.20;99.90
5850;DHT22;2951;47.712;9.400;2023-05-01T14:43:01;13.40;99.90
5850;DHT22;2951;47.712;9.400;2023-05-01T14:45:28;13.40;99.90
5850;DHT22;2951;47.712;9.400;2023-05-01T14:47:55;13.60;99.90
5850;DHT22;2951;47.712;9.400;2023-05-01T14:50:22;13.70;99.90
5850;DHT22;2951;47.712;9.400;2023-05-01T14:52:53;13.70;99.90
5850;DHT22;2951;47.712;9.400;2023-05-01T14:55:27;13.80;99.90
5850;DHT22;2951;47.712;9.400;2023-05-01T14:57:54;14.00;99.90
5850;DHT22;2951;47.712;9.400;2023-05-01T15:00:22;14.00;99.90
5850;DHT22;2951;47.712;9.400;2023-05-01T15:02:49;14.20;99.90
5850;DHT22;2951;47.712;9.400;2023-05-01T15:05:16;14.30;99.90
5850;DHT22;2951;47.712;9.400;2023-05-01T15:07:43;14.20;99.90
5850;DHT22;2951;47.712;9.400;2023-05-01T15:10:09;14.30;99.90
5850;DHT22;2951;47.712;9.400;2023-05-01T15:12:36;14.40;99.90
5850;DHT22;2951;47.712;9.400;2023-05-01T15:15:03;14.60;99.90
5850;DHT22;2951;47.712;9.400;2023-05-01T15:17:30;14.70;99.90
5850;DHT22;2951;47.712;9.400;2023-05-01T15:19:57;14.90;99.90
5850;DHT22;2951;47.712;9.400;2023-05-01T15:22:24;14.90;99.90
5850;DHT22;2951;47.712;9.400;2023-05-01T15:24:51;14.90;99.90
5850;DHT22;2951;47.712;9.400;2023-05-01T15:27:18;15.00;99.90
5850;DHT22;2951;47.712;9.400;2023-05-01T15:29:44;15.10;99.90
5850;DHT22;2951;47.712;9.400;2023-05-01T15:32:11;15.10;99.90
5850;DHT22;2951;47.712;9.400;2023-05-01T15:34:38;15.20;99.90
5850;DHT22;2951;47.712;9.400;2023-05-01T15:37:06;15.50;99.90
5850;DHT22;2951;47.712;9.400;2023-05-01T15:39:33;15.80;99.90
5850;DHT22;2951;47.712;9.400;2023-05-01T15:42:00;15.80;99.90
5850;DHT22;2951;47.712;9.400;2023-05-01T15:44:27;15.70;99.90
5850;DHT22;2951;47.712;9.400;2023-05-01T15:46:54;15.30;99.90
5850;DHT22;2951;47.712;9.400;2023-05-01T15:49:21;15.20;99.90
5850;DHT22;2951;47.712;9.400;2023-05-01T15:51:48;15.00;99.90
5850;DHT22;2951;47.712;9.400;2023-05-01T15:54:14;14.70;99.90
5850;DHT22;2951;47.712;9.400;2023-05-01T15:56:41;14.30;99.90
5850;DHT22;2951;47.712;9.400;2023-05-01T15:59:08;13.80;99.90
5850;DHT22;2951;47.712;9.400;2023-05-01T16:01:35;13.50;99.90
5850;DHT22;2951;47.712;9.400;2023-05-01T16:04:02;13.20;99.90
5850;DHT22;2951;47.712;9.400;2023-05-01T16:06:29;13.00;99.90
5850;DHT22;2951;47.712;9.400;2023-05-01T16:08:57;12.70;99.90
5850;DHT22;2951;47.712;9.400;2023-05-01T16:11:24;12.50;99.90
5850;DHT22;2951;47.712;9.400;2023-05-01T16:13:52;12.40;99.90
5850;DHT22;2951;47.712;9.400;2023-05-01T16:16:26;12.30;99.90
5850;DHT22;2951;47.712;9.400;2023-05-01T16:18:54;11.90;99.90
5850;DHT22;2951;47.712;9.400;2023-05-01T16:21:21;11.70;99.90
5850;DHT22;2951;47.712;9.400;2023-05-01T16:23:48;11.80;99.90
5850;DHT22;2951;47.712;9.400;2023-05-01T16:26:23;11.70;99.90
5850;DHT22;2951;47.712;9.400;2023-05-01T16:28:52;11.70;99.90
5850;DHT22;2951;47.712;9.400;2023-05-01T16:31:19;11.50;99.90
5850;DHT22;2951;47.712;9.400;2023-05-01T16:33:51;11.60;99.90
5850;DHT22;2951;47.712;9.400;2023-05-01T16:36:19;11.80;99.90
5850;DHT22;2951;47.712;9.400;2023-05-01T16:38:46;11.90;99.90
5850;DHT22;2951;47.712;9.400;2023-05-01T16:41:14;11.90;99.90
5850;DHT22;2951;47.712;9.400;2023-05-01T16:43:41;11.90;99.90
5850;DHT22;2951;47.712;9.400;2023-05-01T16:46:08;12.00;99.90
5850;DHT22;2951;47.712;9.400;2023-05-01T16:48:34;12.00;99.90
5850;DHT22;2951;47.712;9.400;2023-05-01T16:51:03;12.00;99.90